createdAt,value
2019-01-04T00:00:56.208Z,10.57
2019-01-04T00:03:27.613Z,12.17
2019-01-04T00:05:58.799Z,9.00
2019-01-04T00:08:30.309Z,9.03
2019-01-04T00:11:01.526Z,9.37
2019-01-04T00:13:32.680Z,10.83
2019-01-04T00:16:03.683Z,10.93
2019-01-04T00:18:34.844Z,7.70
2019-01-04T00:21:06.828Z,9.53
2019-01-04T00:23:38.071Z,8.78
2019-01-04T00:26:09.225Z,9.17
2019-01-04T00:28:40.421Z,8.27
2019-01-04T00:31:11.395Z,9.93
2019-01-04T00:33:42.618Z,9.30
2019-01-04T00:36:14.146Z,8.50
2019-01-04T00:38:46.711Z,10.60
2019-01-04T00:41:18.955Z,8.83
2019-01-04T00:43:50.514Z,8.83
2019-01-04T00:46:21.665Z,8.53
2019-01-04T00:48:52.974Z,10.07
2019-01-04T00:51:24.078Z,9.77
2019-01-04T00:53:55.856Z,12.23
2019-01-04T00:57:10.894Z,9.90
2019-01-04T01:00:08.149Z,10.72
2019-01-04T01:03:37.981Z,9.70
2019-01-04T01:06:52.832Z,10.53
2019-01-04T01:10:07.269Z,9.40
2019-01-04T01:13:16.507Z,11.40
2019-01-04T01:16:18.487Z,8.00
2019-01-04T01:19:33.058Z,9.75
2019-01-04T01:22:58.967Z,10.20
2019-01-04T01:26:07.979Z,9.10
2019-01-04T01:29:16.029Z,7.80
2019-01-04T01:32:22.784Z,7.93
2019-01-04T01:35:29.752Z,6.80
2019-01-04T01:38:36.873Z,9.57
2019-01-04T01:42:01.353Z,7.50
2019-01-04T01:45:08.852Z,9.03
2019-01-04T01:47:48.698Z,12.53
2019-01-04T01:51:04.097Z,13.78
2019-01-04T01:53:47.188Z,11.23
2019-01-04T01:56:18.324Z,8.48
2019-01-04T01:58:49.620Z,9.63
2019-01-04T02:01:20.870Z,7.70
2019-01-04T02:03:52.325Z,6.60
2019-01-04T02:06:23.627Z,6.35
2019-01-04T02:08:55.043Z,7.37
2019-01-04T02:11:26.164Z,7.93
2019-01-04T02:13:57.536Z,9.60
2019-01-04T02:16:28.779Z,6.55
2019-01-04T02:19:00.068Z,6.40
2019-01-04T02:21:31.323Z,8.57
2019-01-04T02:24:02.662Z,7.37
2019-01-04T02:26:34.979Z,6.97
2019-01-04T02:29:06.256Z,5.47
2019-01-04T02:31:37.574Z,5.47
2019-01-04T02:34:08.791Z,4.87
2019-01-04T02:36:40.042Z,4.58
2019-01-04T02:39:11.045Z,5.73
2019-01-04T02:41:42.193Z,5.67
2019-01-04T02:44:13.239Z,6.40
2019-01-04T02:46:44.389Z,5.87
2019-01-04T02:49:15.524Z,7.60
2019-01-04T02:51:46.622Z,4.93
2019-01-04T02:54:18.205Z,6.10
2019-01-04T02:56:49.452Z,5.03
2019-01-04T02:59:20.572Z,12.28
2019-01-04T03:01:54.377Z,5.70
2019-01-04T03:04:25.393Z,18.60
2019-01-04T03:06:56.705Z,6.63
2019-01-04T03:09:27.793Z,6.72
2019-01-04T03:11:59.041Z,5.00
2019-01-04T03:14:31.731Z,6.03
2019-01-04T03:17:03.328Z,7.13
2019-01-04T03:19:34.706Z,5.67
2019-01-04T03:22:06.127Z,5.40
2019-01-04T03:24:37.601Z,6.13
2019-01-04T03:27:08.631Z,8.47
2019-01-04T03:29:39.980Z,6.00
2019-01-04T03:32:11.227Z,6.00
2019-01-04T03:34:42.574Z,4.63
2019-01-04T03:37:13.888Z,6.87
2019-01-04T03:39:45.038Z,6.10
2019-01-04T03:42:16.348Z,6.75
2019-01-04T03:44:47.338Z,6.47
2019-01-04T03:47:18.554Z,5.17
2019-01-04T03:49:49.816Z,7.47
2019-01-04T03:52:21.060Z,4.45
2019-01-04T03:54:52.149Z,6.47
2019-01-04T03:57:23.398Z,5.07
2019-01-04T03:59:54.742Z,5.80
2019-01-04T04:02:25.942Z,6.47
2019-01-04T04:04:57.236Z,5.37
2019-01-04T04:07:28.783Z,5.53
2019-01-04T04:10:00.221Z,8.50
2019-01-04T04:12:31.376Z,11.33
2019-01-04T04:15:02.514Z,7.87
2019-01-04T04:17:33.684Z,7.77
2019-01-04T04:20:06.559Z,7.87
2019-01-04T04:22:38.613Z,9.53
2019-01-04T04:25:09.629Z,23.70
2019-01-04T04:27:41.251Z,26.87
2019-01-04T04:30:12.433Z,7.72
2019-01-04T04:32:44.637Z,8.30
2019-01-04T04:35:16.410Z,7.57
2019-01-04T04:37:47.513Z,6.00
2019-01-04T04:40:18.757Z,5.40
2019-01-04T04:42:50.018Z,9.27
2019-01-04T04:45:21.484Z,5.67
2019-01-04T04:47:52.581Z,5.07
2019-01-04T04:50:23.816Z,5.50
2019-01-04T04:52:55.009Z,5.77
2019-01-04T04:55:26.140Z,7.83
2019-01-04T04:57:59.671Z,7.07
2019-01-04T05:00:31.003Z,8.33
2019-01-04T05:03:02.517Z,7.77
2019-01-04T05:05:34.778Z,9.77
2019-01-04T05:08:06.059Z,9.20
2019-01-04T05:10:37.204Z,9.10
2019-01-04T05:13:08.527Z,9.30
2019-01-04T05:15:40.234Z,12.67
2019-01-04T05:18:11.345Z,11.88
2019-01-04T05:20:43.159Z,6.90
2019-01-04T05:23:15.799Z,14.10
2019-01-04T05:25:46.999Z,9.17
2019-01-04T05:28:18.087Z,8.20
2019-01-04T05:30:50.960Z,8.50
2019-01-04T05:33:22.340Z,7.70
2019-01-04T05:35:54.152Z,6.87
2019-01-04T05:38:25.328Z,7.80
2019-01-04T05:40:56.661Z,9.90
2019-01-04T05:43:28.161Z,8.40
2019-01-04T05:45:59.405Z,7.23
2019-01-04T05:48:31.859Z,7.83
2019-01-04T05:51:03.070Z,10.80
2019-01-04T05:53:36.044Z,10.77
2019-01-04T05:56:07.308Z,10.57
2019-01-04T05:58:38.327Z,12.63
2019-01-04T06:01:09.897Z,11.73
2019-01-04T06:03:41.011Z,9.80
2019-01-04T06:06:12.481Z,8.87
2019-01-04T06:08:43.610Z,7.90
2019-01-04T06:11:15.778Z,9.23
2019-01-04T06:13:47.180Z,10.40
2019-01-04T06:16:18.220Z,8.23
2019-01-04T06:18:51.837Z,8.87
2019-01-04T06:21:23.057Z,8.58
2019-01-04T06:23:54.405Z,8.57
2019-01-04T06:26:26.011Z,12.13
2019-01-04T06:28:57.134Z,8.50
2019-01-04T06:31:28.368Z,7.10
2019-01-04T06:33:59.376Z,9.37
2019-01-04T06:36:30.636Z,8.50
2019-01-04T06:39:01.772Z,11.15
2019-01-04T06:41:34.011Z,10.63
2019-01-04T06:44:05.955Z,10.18
2019-01-04T06:46:58.570Z,9.70
2019-01-04T06:49:29.976Z,11.37
2019-01-04T06:52:01.035Z,12.47
2019-01-04T06:55:07.734Z,8.70
2019-01-04T06:57:39.213Z,10.77
2019-01-04T07:00:10.327Z,10.40
2019-01-04T07:02:41.591Z,15.57
2019-01-04T07:05:13.345Z,10.90
2019-01-04T07:07:44.711Z,11.83
2019-01-04T07:10:16.155Z,11.97
2019-01-04T07:12:47.683Z,12.10
2019-01-04T07:15:19.024Z,13.55
2019-01-04T07:17:50.560Z,13.97
2019-01-04T07:20:21.973Z,12.78
2019-01-04T07:22:53.421Z,12.77
2019-01-04T07:25:24.831Z,13.67
2019-01-04T07:27:56.253Z,12.27
2019-01-04T07:30:27.456Z,13.43
2019-01-04T07:32:59.255Z,15.30
2019-01-04T07:35:31.648Z,17.93
2019-01-04T07:38:03.725Z,17.67
2019-01-04T07:40:34.857Z,18.33
2019-01-04T07:43:06.262Z,15.60
2019-01-04T07:45:37.447Z,16.50
2019-01-04T07:48:08.667Z,16.20
2019-01-04T07:50:39.740Z,13.87
2019-01-04T07:53:10.867Z,15.13
2019-01-04T07:55:42.148Z,12.60
2019-01-04T07:58:13.404Z,15.23
2019-01-04T08:00:45.769Z,16.17
2019-01-04T08:03:22.163Z,16.47
2019-01-04T08:05:55.261Z,15.63
2019-01-04T08:08:26.720Z,15.13
2019-01-04T08:10:58.299Z,16.65
2019-01-04T08:13:32.139Z,17.67
2019-01-04T08:16:03.514Z,16.03
2019-01-04T08:18:35.167Z,19.63
2019-01-04T08:21:06.491Z,17.33
2019-01-04T08:23:37.869Z,17.60
2019-01-04T08:26:09.043Z,15.83
2019-01-04T08:28:40.407Z,15.30
2019-01-04T08:31:12.622Z,19.60
2019-01-04T08:33:44.768Z,18.10
2019-01-04T08:36:15.869Z,20.12
2019-01-04T08:38:47.511Z,20.27
2019-01-04T08:41:18.677Z,20.77
2019-01-04T08:43:49.812Z,26.50
2019-01-04T08:46:21.435Z,21.60
2019-01-04T08:48:53.243Z,23.07
2019-01-04T08:51:24.318Z,24.93
2019-01-04T08:54:03.857Z,25.70
2019-01-04T08:56:36.846Z,23.07
2019-01-04T08:59:07.881Z,25.27
2019-01-04T09:01:39.243Z,21.60
2019-01-04T09:04:10.327Z,27.07
2019-01-04T09:06:41.356Z,20.83
2019-01-04T09:09:14.060Z,30.67
2019-01-04T09:11:45.156Z,25.63
2019-01-04T09:14:17.308Z,22.87
2019-01-04T09:16:48.351Z,24.23
2019-01-04T09:19:19.651Z,23.18
2019-01-04T09:21:50.677Z,23.53
2019-01-04T09:24:22.025Z,23.67
2019-01-04T09:26:53.340Z,22.30
2019-01-04T09:29:24.749Z,17.25
2019-01-04T09:31:55.982Z,17.13
2019-01-04T09:34:27.420Z,21.17
2019-01-04T09:36:58.611Z,21.37
2019-01-04T09:39:30.647Z,22.60
2019-01-04T09:42:16.243Z,16.83
2019-01-04T09:44:48.079Z,19.03
2019-01-04T09:47:19.429Z,19.10
2019-01-04T09:49:51.854Z,18.37
2019-01-04T09:52:22.978Z,19.90
2019-01-04T09:54:54.294Z,15.67
2019-01-04T09:57:26.097Z,19.70
2019-01-04T09:59:57.267Z,18.37
2019-01-04T10:02:28.797Z,19.60
2019-01-04T10:05:00.430Z,20.53
2019-01-04T10:07:31.466Z,18.60
2019-01-04T10:10:03.697Z,22.87
2019-01-04T10:12:35.116Z,21.05
2019-01-04T10:15:07.400Z,16.87
2019-01-04T10:17:38.824Z,19.40
2019-01-04T10:20:10.987Z,19.07
2019-01-04T10:22:43.355Z,18.53
2019-01-04T10:25:14.691Z,16.33
2019-01-04T10:27:45.853Z,14.00
2019-01-04T10:30:35.473Z,15.55
2019-01-04T10:33:06.812Z,15.95
2019-01-04T10:35:38.349Z,13.73
2019-01-04T10:38:09.568Z,17.93
2019-01-04T10:40:41.351Z,16.80
2019-01-04T10:43:12.460Z,15.68
2019-01-04T10:45:44.785Z,17.67
2019-01-04T10:48:16.027Z,12.47
2019-01-04T10:50:48.198Z,18.20
2019-01-04T10:53:19.286Z,15.85
2019-01-04T10:55:50.532Z,14.67
2019-01-04T10:58:21.920Z,18.05
2019-01-04T11:00:53.119Z,16.80
2019-01-04T11:03:24.199Z,15.37
2019-01-04T11:05:55.440Z,16.03
2019-01-04T11:08:26.608Z,17.33
2019-01-04T11:10:57.792Z,19.62
2019-01-04T11:13:28.926Z,20.03
2019-01-04T11:16:00.205Z,18.30
2019-01-04T11:18:31.821Z,16.97
2019-01-04T11:21:06.028Z,18.93
2019-01-04T11:24:14.107Z,21.10
2019-01-04T11:26:58.509Z,18.83
2019-01-04T11:30:08.866Z,18.93
2019-01-04T11:32:53.719Z,15.10
2019-01-04T11:36:20.879Z,18.53
2019-01-04T11:39:31.352Z,18.13
2019-01-04T11:42:30.807Z,21.33
2019-01-04T11:45:26.026Z,22.50
2019-01-04T11:48:10.424Z,21.93
2019-01-04T11:50:55.086Z,25.10
2019-01-04T11:53:26.210Z,20.03
2019-01-04T11:55:57.344Z,21.20
2019-01-04T11:58:28.715Z,18.97
2019-01-04T12:01:00.444Z,21.30
2019-01-04T12:03:32.348Z,23.00
2019-01-04T12:06:05.072Z,23.40
2019-01-04T12:08:36.149Z,17.40
2019-01-04T12:11:07.738Z,18.90
2019-01-04T12:13:39.065Z,20.93
2019-01-04T12:16:10.555Z,21.45
2019-01-04T12:18:44.075Z,23.75
2019-01-04T12:21:15.542Z,22.70
2019-01-04T12:23:47.015Z,24.33
2019-01-04T12:26:18.963Z,20.77
2019-01-04T12:28:50.341Z,22.37
2019-01-04T12:31:23.272Z,23.70
2019-01-04T12:33:55.971Z,19.70
2019-01-04T12:36:27.253Z,21.13
2019-01-04T12:38:58.561Z,24.93
2019-01-04T12:41:29.699Z,23.60
2019-01-04T12:44:02.342Z,25.77
2019-01-04T12:46:33.415Z,27.13
2019-01-04T12:49:05.732Z,26.90
2019-01-04T12:51:36.938Z,26.83
2019-01-04T12:54:08.470Z,31.37
2019-01-04T12:56:39.477Z,29.97
2019-01-04T12:59:11.101Z,28.17
2019-01-04T13:01:42.591Z,33.27
2019-01-04T13:04:13.669Z,34.73
2019-01-04T13:06:44.681Z,31.95
2019-01-04T13:09:15.836Z,33.97
2019-01-04T13:11:47.238Z,34.50
2019-01-04T13:14:18.979Z,35.55
2019-01-04T13:16:50.341Z,37.43
2019-01-04T13:19:25.626Z,42.03
2019-01-04T13:21:55.408Z,41.83
2019-01-04T13:24:28.700Z,42.33
2019-01-04T13:27:00.826Z,40.93
2019-01-04T13:29:32.200Z,42.10
2019-01-04T13:32:03.933Z,44.03
2019-01-04T13:34:37.057Z,43.20
2019-01-04T13:37:09.675Z,49.07
2019-01-04T13:39:40.991Z,48.33
2019-01-04T13:42:12.100Z,45.50
2019-01-04T13:44:43.547Z,50.80
2019-01-04T13:47:16.250Z,50.23
2019-01-04T13:49:47.514Z,51.13
2019-01-04T13:52:19.684Z,54.67
2019-01-04T13:54:50.952Z,56.83
2019-01-04T13:57:22.128Z,58.80
2019-01-04T13:59:53.433Z,54.10
2019-01-04T14:02:24.535Z,56.90
2019-01-04T14:04:55.800Z,57.05
2019-01-04T14:07:27.118Z,57.90
2019-01-04T14:09:58.252Z,51.53
2019-01-04T14:12:29.658Z,53.93
2019-01-04T14:15:00.906Z,57.70
2019-01-04T14:17:32.638Z,55.10
2019-01-04T14:20:04.128Z,54.37
2019-01-04T14:22:37.528Z,55.40
2019-01-04T14:25:09.335Z,52.57
2019-01-04T14:27:40.612Z,55.97
2019-01-04T14:30:13.069Z,53.70
2019-01-04T14:32:44.120Z,52.57
2019-01-04T14:35:15.600Z,49.60
2019-01-04T14:37:46.741Z,45.33
2019-01-04T14:40:17.841Z,45.30
2019-01-04T14:42:48.849Z,46.13
2019-01-04T14:45:20.294Z,44.48
2019-01-04T14:47:51.507Z,41.50
2019-01-04T14:50:22.691Z,40.33
2019-01-04T14:52:54.034Z,41.73
2019-01-04T14:55:26.486Z,38.13
2019-01-04T14:57:58.023Z,37.30
2019-01-04T15:00:29.643Z,39.60
2019-01-04T15:03:02.312Z,35.30
2019-01-04T15:05:33.833Z,38.33
2019-01-04T15:08:06.285Z,34.48
2019-01-04T15:10:37.754Z,32.87
2019-01-04T15:13:09.021Z,34.30
2019-01-04T15:15:40.408Z,35.03
2019-01-04T15:18:11.453Z,31.47
2019-01-04T15:20:42.798Z,28.23
2019-01-04T15:23:14.075Z,28.98
2019-01-04T15:25:45.440Z,31.73
2019-01-04T15:28:16.674Z,32.50
2019-01-04T15:30:48.920Z,32.37
2019-01-04T15:33:21.114Z,33.38
2019-01-04T15:35:52.300Z,31.23
2019-01-04T15:38:23.499Z,32.37
2019-01-04T15:40:54.699Z,37.63
2019-01-04T15:43:27.117Z,37.63
2019-01-04T15:45:58.699Z,38.93
2019-01-04T15:48:30.112Z,33.48
2019-01-04T15:51:01.344Z,34.63
2019-01-04T15:53:32.649Z,31.43
2019-01-04T15:56:03.903Z,33.13
2019-01-04T15:58:35.081Z,29.67
2019-01-04T16:01:06.495Z,29.83
2019-01-04T16:03:37.824Z,25.40
2019-01-04T16:06:08.975Z,28.20
2019-01-04T16:08:40.089Z,23.13
2019-01-04T16:11:11.312Z,23.30
2019-01-04T16:13:42.960Z,20.37
2019-01-04T16:16:14.717Z,16.13
2019-01-04T16:18:46.209Z,18.20
2019-01-04T16:21:19.011Z,17.95
2019-01-04T16:23:50.522Z,15.70
2019-01-04T16:26:22.225Z,19.27
2019-01-04T16:28:53.784Z,19.93
2019-01-04T16:31:25.121Z,17.07
2019-01-04T16:33:56.585Z,17.30
2019-01-04T16:36:28.048Z,19.13
2019-01-04T16:38:59.373Z,20.30
2019-01-04T16:41:30.766Z,21.47
2019-01-04T16:44:07.263Z,20.73
2019-01-04T16:46:35.036Z,20.67
2019-01-04T16:49:06.369Z,18.50
2019-01-04T16:51:37.818Z,22.87
2019-01-04T16:54:08.803Z,23.87
2019-01-04T16:56:41.298Z,23.63
2019-01-04T16:59:13.828Z,25.47
2019-01-04T17:01:45.117Z,25.50
2019-01-04T17:04:16.397Z,24.13
2019-01-04T17:06:47.648Z,27.80
2019-01-04T17:09:19.000Z,27.82
2019-01-04T17:11:50.389Z,23.90
2019-01-04T17:14:22.273Z,27.73
2019-01-04T17:16:53.503Z,26.73
2019-01-04T17:19:24.906Z,27.40
2019-01-04T17:21:56.081Z,25.85
2019-01-04T17:24:27.483Z,27.97
2019-01-04T17:26:58.723Z,27.67
2019-01-04T17:29:29.783Z,29.70
2019-01-04T17:32:01.784Z,28.60
2019-01-04T17:34:33.010Z,31.07
2019-01-04T17:37:04.230Z,31.23
2019-01-04T17:39:35.533Z,31.07
2019-01-04T17:42:07.212Z,28.70
2019-01-04T17:44:38.575Z,28.73
2019-01-04T17:47:10.222Z,30.00
2019-01-04T17:49:41.573Z,36.33
2019-01-04T17:52:13.078Z,33.20
2019-01-04T17:54:44.439Z,29.50
2019-01-04T17:57:17.420Z,37.25
2019-01-04T17:59:48.573Z,32.33
2019-01-04T18:02:20.892Z,33.33
2019-01-04T18:04:53.435Z,33.63
2019-01-04T18:07:25.016Z,36.13
2019-01-04T18:09:56.162Z,35.63
2019-01-04T18:12:28.107Z,33.93
2019-01-04T18:14:59.454Z,32.57
2019-01-04T18:17:30.669Z,34.27
2019-01-04T18:20:01.889Z,34.05
2019-01-04T18:22:33.335Z,33.08
2019-01-04T18:25:04.958Z,30.43
2019-01-04T18:27:36.137Z,35.20
2019-01-04T18:30:08.917Z,33.30
2019-01-04T18:32:40.223Z,34.77
2019-01-04T18:35:11.470Z,32.33
2019-01-04T18:37:43.038Z,33.97
2019-01-04T18:40:14.031Z,35.78
2019-01-04T18:42:45.398Z,39.57
2019-01-04T18:45:16.680Z,36.55
2019-01-04T18:47:48.041Z,37.93
2019-01-04T18:50:22.542Z,36.13
2019-01-04T18:52:53.688Z,33.85
2019-01-04T18:55:24.807Z,38.55
2019-01-04T18:57:56.894Z,36.00
2019-01-04T19:00:28.049Z,39.95
2019-01-04T19:02:59.178Z,40.67
2019-01-04T19:05:30.296Z,37.13
2019-01-04T19:08:02.441Z,38.80
2019-01-04T19:10:33.716Z,39.43
2019-01-04T19:13:06.058Z,38.98
2019-01-04T19:15:37.168Z,39.40
2019-01-04T19:18:08.343Z,41.67
2019-01-04T19:20:39.368Z,40.67
2019-01-04T19:23:10.657Z,42.70
2019-01-04T19:25:41.882Z,40.87
2019-01-04T19:28:13.361Z,42.63
2019-01-04T19:30:44.558Z,42.17
2019-01-04T19:33:15.911Z,41.33
2019-01-04T19:35:47.322Z,40.10
2019-01-04T19:38:18.697Z,41.13
2019-01-04T19:40:52.425Z,42.23
2019-01-04T19:43:23.799Z,41.73
2019-01-04T19:45:55.403Z,41.53
2019-01-04T19:48:26.857Z,40.23
2019-01-04T19:50:58.068Z,44.20
2019-01-04T19:53:29.297Z,42.97
2019-01-04T19:56:00.457Z,43.30
2019-01-04T19:58:31.463Z,43.07
2019-01-04T20:01:02.697Z,44.23
2019-01-04T20:03:33.937Z,43.23
2019-01-04T20:07:08.925Z,46.18
2019-01-04T20:10:51.574Z,48.77
2019-01-04T20:14:23.450Z,47.90
2019-01-04T20:17:11.844Z,47.17
2019-01-04T20:20:12.654Z,47.30
2019-01-04T20:23:01.723Z,47.23
2019-01-04T20:25:50.574Z,48.67
2019-01-04T20:28:40.280Z,50.88
2019-01-04T20:31:42.369Z,48.63
2019-01-04T20:34:31.541Z,46.90
2019-01-04T20:37:39.532Z,49.03
2019-01-04T20:40:35.321Z,49.47
2019-01-04T20:43:34.351Z,51.00
2019-01-04T20:46:23.801Z,49.15
2019-01-04T20:49:26.538Z,52.53
2019-01-04T20:52:12.277Z,46.43
2019-01-04T20:55:17.720Z,48.03
2019-01-04T20:58:07.876Z,50.50
2019-01-04T21:00:56.868Z,49.80
2019-01-04T21:03:47.531Z,47.90
2019-01-04T21:06:33.430Z,45.50
2019-01-04T21:09:23.301Z,46.97
2019-01-04T21:12:14.443Z,44.47
2019-01-04T21:15:02.688Z,43.90
2019-01-04T21:18:03.980Z,47.47
2019-01-04T21:20:51.017Z,49.37
2019-01-04T21:23:32.515Z,47.53
2019-01-04T21:26:23.799Z,45.90
2019-01-04T21:29:12.486Z,45.80
2019-01-04T21:32:11.667Z,47.10
2019-01-04T21:35:11.119Z,45.23
2019-01-04T21:38:00.418Z,48.07
2019-01-04T21:40:49.391Z,49.13
2019-01-04T21:43:44.552Z,46.33
2019-01-04T21:46:33.523Z,46.50
2019-01-04T21:49:24.508Z,45.17
2019-01-04T21:52:14.581Z,45.83
2019-01-04T21:55:10.726Z,45.93
2019-01-04T21:57:59.346Z,42.53
2019-01-04T22:00:48.378Z,47.10
2019-01-04T22:03:50.606Z,46.83
2019-01-04T22:06:39.423Z,45.03
2019-01-04T22:09:31.029Z,47.50
2019-01-04T22:12:24.321Z,45.20
2019-01-04T22:15:13.667Z,43.33
2019-01-04T22:18:01.218Z,42.62
2019-01-04T22:20:54.075Z,46.83
2019-01-04T22:23:59.411Z,43.50
2019-01-04T22:26:52.329Z,44.73
2019-01-04T22:29:43.277Z,42.13
2019-01-04T22:32:39.452Z,45.33
2019-01-04T22:35:31.665Z,44.13
2019-01-04T22:38:14.322Z,43.97
2019-01-04T22:41:03.398Z,43.77
2019-01-04T22:44:06.091Z,44.97
2019-01-04T22:46:56.719Z,45.50
2019-01-04T22:49:49.928Z,45.33
2019-01-04T22:52:38.993Z,44.97
2019-01-04T22:55:28.408Z,42.90
2019-01-04T22:58:21.573Z,40.83
2019-01-04T23:01:10.998Z,45.10
2019-01-04T23:03:55.589Z,40.60
2019-01-04T23:06:44.919Z,41.13
2019-01-04T23:09:37.912Z,41.23
2019-01-04T23:12:31.154Z,40.20
2019-01-04T23:15:20.066Z,38.97
2019-01-04T23:18:09.266Z,40.37
2019-01-04T23:21:09.651Z,38.87
2019-01-04T23:23:58.775Z,36.80
2019-01-04T23:27:04.517Z,36.53
2019-01-04T23:29:58.649Z,38.50
2019-01-04T23:32:47.606Z,37.60
2019-01-04T23:35:46.892Z,33.35
2019-01-04T23:38:35.532Z,33.27
2019-01-04T23:41:25.063Z,34.73
2019-01-04T23:44:21.428Z,32.57
2019-01-04T23:47:12.334Z,32.30
2019-01-04T23:50:01.533Z,31.33
2019-01-04T23:52:51.655Z,30.50
2019-01-04T23:55:38.432Z,31.05
2019-01-04T23:58:27.733Z,30.27
